createdAt,value
2023-05-13T00:02:04.074Z,98099.59
2023-05-13T00:04:34.195Z,98100.56
2023-05-13T00:07:04.366Z,98098.78
2023-05-13T00:09:37.300Z,98100.03
2023-05-13T00:12:08.323Z,98096.97
2023-05-13T00:14:38.604Z,98095.94
2023-05-13T00:17:09.008Z,98093.66
2023-05-13T00:19:39.180Z,98100.47
2023-05-13T00:22:09.386Z,98096.66
2023-05-13T00:24:42.431Z,98100.47
2023-05-13T00:27:12.636Z,98097.44
2023-05-13T00:29:42.816Z,98098.94
2023-05-13T00:32:13.175Z,98093.88
2023-05-13T00:34:43.338Z,98106.56
2023-05-13T00:37:14.369Z,98095.91
2023-05-13T00:39:47.313Z,98094.09
2023-05-13T00:42:17.868Z,98105.69
2023-05-13T00:44:48.557Z,98095.22
2023-05-13T00:47:20.255Z,98099.03
2023-05-13T00:49:50.690Z,98105.31
2023-05-13T00:52:21.006Z,98104.25
2023-05-13T00:54:53.997Z,98102.94
2023-05-13T00:57:24.472Z,98097.66
2023-05-13T00:59:55.107Z,98099.09
2023-05-13T01:02:29.490Z,98100.09
2023-05-13T01:05:12.183Z,98098.50
2023-05-13T01:07:47.923Z,98097.19
2023-05-13T01:10:27.355Z,98104.72
2023-05-13T01:13:01.889Z,98104.66
2023-05-13T01:15:32.487Z,98099.97
2023-05-13T01:18:08.959Z,98108.28
2023-05-13T01:20:41.549Z,98107.44
2023-05-13T01:23:14.857Z,98099.78
2023-05-13T01:25:45.459Z,98110.63
2023-05-13T01:28:16.657Z,98106.81
2023-05-13T01:30:51.892Z,98101.44
2023-05-13T01:33:22.392Z,98113.06
2023-05-13T01:35:52.761Z,98106.44
2023-05-13T01:38:26.042Z,98113.75
2023-05-13T01:40:59.633Z,98105.88
2023-05-13T01:43:34.329Z,98104.03
2023-05-13T01:46:15.397Z,98103.50
2023-05-13T01:48:45.667Z,98098.31
2023-05-13T01:51:16.047Z,98105.06
2023-05-13T01:53:50.400Z,98107.00
2023-05-13T01:56:22.408Z,98106.91
2023-05-13T01:58:52.851Z,98106.56
2023-05-13T02:01:23.124Z,98103.72
2023-05-13T02:03:54.032Z,98107.44
2023-05-13T02:06:24.288Z,98098.53
2023-05-13T02:08:57.531Z,98097.22
2023-05-13T02:11:27.902Z,98086.25
2023-05-13T02:14:00.752Z,98097.59
2023-05-13T02:16:30.993Z,98097.78
2023-05-13T02:19:01.518Z,98089.84
2023-05-13T02:21:32.451Z,98095.88
2023-05-13T02:24:05.340Z,98097.34
2023-05-13T02:26:35.507Z,98098.28
2023-05-13T02:29:05.960Z,98093.69
2023-05-13T02:31:37.032Z,98095.63
2023-05-13T02:34:07.468Z,98087.66
2023-05-13T02:36:37.703Z,98094.66
2023-05-13T02:39:12.224Z,98096.25
2023-05-13T02:41:42.611Z,98090.91
2023-05-13T02:44:12.802Z,98096.34
2023-05-13T02:46:44.348Z,98099.97
2023-05-13T02:49:14.740Z,98090.44
2023-05-13T02:51:45.250Z,98093.63
2023-05-13T02:54:18.200Z,98089.31
2023-05-13T02:56:48.322Z,98091.78
2023-05-13T02:59:18.478Z,98102.13
2023-05-13T03:01:49.614Z,98096.00
2023-05-13T03:04:21.075Z,98100.19
2023-05-13T03:06:53.195Z,98090.03
2023-05-13T03:09:26.016Z,98090.22
2023-05-13T03:11:56.190Z,98092.41
2023-05-13T03:14:26.640Z,98092.41
2023-05-13T03:16:57.220Z,98095.66
2023-05-13T03:19:27.377Z,98096.13
2023-05-13T03:21:57.933Z,98093.06
2023-05-13T03:24:30.870Z,98084.25
2023-05-13T03:27:01.757Z,98085.38
2023-05-13T03:29:32.727Z,98093.41
2023-05-13T03:32:03.075Z,98097.16
2023-05-13T03:34:33.458Z,98098.22
2023-05-13T03:37:03.667Z,98099.94
2023-05-13T03:39:37.314Z,98103.94
2023-05-13T03:42:07.993Z,98108.72
2023-05-13T03:44:39.135Z,98105.66
2023-05-13T03:47:09.890Z,98104.41
2023-05-13T03:49:41.207Z,98104.13
2023-05-13T03:52:11.403Z,98106.13
2023-05-13T03:54:44.157Z,98107.19
2023-05-13T03:57:14.297Z,98107.19
2023-05-13T03:59:44.417Z,98113.50
2023-05-13T04:02:14.622Z,98110.25
2023-05-13T04:04:44.878Z,98115.50
2023-05-13T04:07:15.010Z,98112.44
2023-05-13T04:09:47.836Z,98113.88
2023-05-13T04:12:18.421Z,98112.59
2023-05-13T04:14:48.639Z,98106.91
2023-05-13T04:17:18.850Z,98114.75
2023-05-13T04:19:49.077Z,98108.56
2023-05-13T04:22:19.185Z,98106.06
2023-05-13T04:24:56.658Z,98114.50
2023-05-13T04:27:27.215Z,98123.44
2023-05-13T04:30:04.594Z,98117.38
2023-05-13T04:32:36.813Z,98122.47
2023-05-13T04:35:07.613Z,98127.34
2023-05-13T04:37:38.744Z,98121.16
2023-05-13T04:40:15.015Z,98128.84
2023-05-13T04:42:45.632Z,98126.66
2023-05-13T04:45:15.929Z,98130.09
2023-05-13T04:47:46.174Z,98127.44
2023-05-13T04:50:16.406Z,98132.81
2023-05-13T04:52:47.828Z,98127.63
2023-05-13T04:55:22.992Z,98128.06
2023-05-13T04:57:53.866Z,98130.00
2023-05-13T05:00:24.434Z,98128.09
2023-05-13T05:02:56.904Z,98133.06
2023-05-13T05:05:28.240Z,98135.56
2023-05-13T05:07:58.455Z,98137.47
2023-05-13T05:10:31.855Z,98140.16
2023-05-13T05:13:04.004Z,98139.75
2023-05-13T05:15:34.315Z,98143.00
2023-05-13T05:18:07.395Z,98136.84
2023-05-13T05:20:40.453Z,98153.72
2023-05-13T05:23:16.455Z,98146.56
2023-05-13T05:25:53.207Z,98144.44
2023-05-13T05:28:28.256Z,98146.63
2023-05-13T05:30:59.612Z,98151.56
2023-05-13T05:33:31.354Z,98152.56
2023-05-13T05:36:01.584Z,98156.31
2023-05-13T05:38:32.509Z,98159.50
2023-05-13T05:41:07.048Z,98159.16
2023-05-13T05:43:37.182Z,98161.28
2023-05-13T05:46:07.680Z,98158.53
2023-05-13T05:48:38.951Z,98156.34
2023-05-13T05:51:09.498Z,98161.03
2023-05-13T05:53:41.360Z,98156.75
2023-05-13T05:56:16.735Z,98159.56
2023-05-13T05:58:48.397Z,98159.88
2023-05-13T06:01:19.932Z,98158.72
2023-05-13T06:03:52.257Z,98160.84
2023-05-13T06:06:24.938Z,98159.19
2023-05-13T06:08:55.225Z,98154.97
2023-05-13T06:11:28.112Z,98164.47
2023-05-13T06:13:58.228Z,98161.53
2023-05-13T06:16:28.570Z,98160.13
2023-05-13T06:18:58.929Z,98158.38
2023-05-13T06:21:29.137Z,98165.28
2023-05-13T06:23:59.283Z,98159.19
2023-05-13T06:26:32.702Z,98165.09
2023-05-13T06:29:03.301Z,98162.13
2023-05-13T06:31:37.335Z,98160.09
2023-05-13T06:34:07.573Z,98169.78
2023-05-13T06:36:37.730Z,98162.66
2023-05-13T06:39:10.739Z,98163.19
2023-05-13T06:41:44.799Z,98164.75
2023-05-13T06:44:18.606Z,98163.75
2023-05-13T06:46:50.306Z,98158.41
2023-05-13T06:49:21.506Z,98166.81
2023-05-13T06:51:51.785Z,98167.81
2023-05-13T06:54:21.950Z,98163.50
2023-05-13T06:56:54.742Z,98169.31
2023-05-13T06:59:24.898Z,98168.31
2023-05-13T07:01:54.990Z,98167.28
2023-05-13T07:04:25.146Z,98165.22
2023-05-13T07:06:55.313Z,98170.31
2023-05-13T07:09:25.452Z,98167.28
2023-05-13T07:11:58.347Z,98169.28
2023-05-13T07:14:28.570Z,98164.88
2023-05-13T07:16:58.967Z,98170.72
2023-05-13T07:19:29.325Z,98170.41
2023-05-13T07:21:59.499Z,98170.88
2023-05-13T07:24:29.586Z,98168.22
2023-05-13T07:27:04.060Z,98160.72
2023-05-13T07:29:34.388Z,98160.03
2023-05-13T07:32:07.415Z,98168.25
2023-05-13T07:34:37.556Z,98156.41
2023-05-13T07:37:08.615Z,98164.53
2023-05-13T07:39:38.757Z,98154.78
2023-05-13T07:42:11.749Z,98156.72
2023-05-13T07:44:41.867Z,98158.59
2023-05-13T07:47:13.684Z,98156.53
2023-05-13T07:49:44.100Z,98161.41
2023-05-13T07:52:14.545Z,98155.38
2023-05-13T07:54:44.752Z,98148.97
2023-05-13T07:57:17.503Z,98151.34
2023-05-13T07:59:48.101Z,98146.56
2023-05-13T08:02:18.333Z,98150.63
2023-05-13T08:04:48.899Z,98138.47
2023-05-13T08:07:19.193Z,98143.19
2023-05-13T08:09:49.324Z,98144.44
2023-05-13T08:12:22.125Z,98145.13
2023-05-13T08:14:52.282Z,98142.38
2023-05-13T08:17:22.844Z,98134.91
2023-05-13T08:19:53.540Z,98138.09
2023-05-13T08:22:23.766Z,98137.13
2023-05-13T08:24:54.057Z,98134.63
2023-05-13T08:27:26.845Z,98127.13
2023-05-13T08:29:57.026Z,98131.28
2023-05-13T08:32:27.285Z,98142.66
2023-05-13T08:34:57.935Z,98125.88
2023-05-13T08:37:28.514Z,98127.13
2023-05-13T08:40:00.854Z,98131.94
2023-05-13T08:42:35.984Z,98132.78
2023-05-13T08:45:08.002Z,98129.69
2023-05-13T08:47:44.751Z,98126.50
2023-05-13T08:50:15.705Z,98128.47
2023-05-13T08:52:46.749Z,98130.22
2023-05-13T08:55:16.922Z,98122.38
2023-05-13T08:57:49.766Z,98129.63
2023-05-13T09:00:21.593Z,98124.34
2023-05-13T09:02:53.176Z,98122.31
2023-05-13T09:05:25.396Z,98130.94
2023-05-13T09:07:57.520Z,98123.94
2023-05-13T09:10:27.694Z,98130.56
2023-05-13T09:13:02.011Z,98125.97
2023-05-13T09:15:32.734Z,98134.38
2023-05-13T09:18:05.235Z,98122.28
2023-05-13T09:20:36.387Z,98119.97
2023-05-13T09:23:09.641Z,98117.44
2023-05-13T09:25:40.545Z,98123.53
2023-05-13T09:28:17.906Z,98123.44
2023-05-13T09:30:57.491Z,98126.22
2023-05-13T09:33:33.176Z,98124.69
2023-05-13T09:36:03.704Z,98122.69
2023-05-13T09:38:37.456Z,98126.59
2023-05-13T09:41:08.441Z,98119.22
2023-05-13T09:43:42.302Z,98111.47
2023-05-13T09:46:12.737Z,98109.56
2023-05-13T09:48:45.938Z,98106.38
2023-05-13T09:51:18.513Z,98109.41
2023-05-13T09:53:50.717Z,98108.03
2023-05-13T09:56:24.245Z,98106.94
2023-05-13T09:58:57.324Z,98102.50
2023-05-13T10:01:28.567Z,98102.81
2023-05-13T10:03:59.858Z,98110.66
2023-05-13T10:06:31.419Z,98116.47
2023-05-13T10:09:06.190Z,98117.19
2023-05-13T10:11:36.936Z,98123.44
2023-05-13T10:14:10.262Z,98129.25
2023-05-13T10:16:41.794Z,98122.56
2023-05-13T10:19:12.938Z,98128.97
2023-05-13T10:21:44.304Z,98118.44
2023-05-13T10:24:14.984Z,98126.69
2023-05-13T10:26:45.237Z,98117.09
2023-05-13T10:29:18.116Z,98125.78
2023-05-13T10:31:48.766Z,98115.53
2023-05-13T10:34:19.128Z,98124.19
2023-05-13T10:37:12.451Z,98117.88
2023-05-13T10:40:04.254Z,98124.91
2023-05-13T10:42:43.526Z,98125.41
2023-05-13T10:45:20.124Z,98130.22
2023-05-13T10:47:53.634Z,98133.03
2023-05-13T10:50:28.006Z,98131.81
2023-05-13T10:53:03.524Z,98135.22
2023-05-13T10:55:33.933Z,98140.84
2023-05-13T10:58:10.124Z,98136.44
2023-05-13T11:00:44.351Z,98140.31
2023-05-13T11:03:17.014Z,98143.50
2023-05-13T11:05:49.257Z,98151.19
2023-05-13T11:08:40.775Z,98144.03
2023-05-13T11:11:21.364Z,98150.50
2023-05-13T11:13:53.430Z,98150.75
2023-05-13T11:16:26.929Z,98157.69
2023-05-13T11:18:57.252Z,98153.38
2023-05-13T11:21:39.903Z,98159.50
2023-05-13T11:24:11.254Z,98163.34
2023-05-13T11:26:49.279Z,98159.22
2023-05-13T11:29:30.806Z,98151.34
2023-05-13T11:32:04.806Z,98160.78
2023-05-13T11:34:36.320Z,98162.31
2023-05-13T11:37:13.736Z,98164.59
2023-05-13T11:39:44.349Z,98160.19
2023-05-13T11:42:15.356Z,98158.91
2023-05-13T11:44:49.562Z,98154.38
2023-05-13T11:47:29.062Z,98156.31
2023-05-13T11:49:59.592Z,98160.63
2023-05-13T11:52:29.728Z,98167.59
2023-05-13T11:55:01.020Z,98161.00
2023-05-13T11:57:32.972Z,98178.66
2023-05-13T12:00:05.095Z,98170.75
2023-05-13T12:02:41.060Z,98172.13
2023-05-13T12:05:13.188Z,98175.16
2023-05-13T12:07:43.416Z,98173.91
2023-05-13T12:10:13.716Z,98179.81
2023-05-13T12:12:46.488Z,98176.53
2023-05-13T12:15:19.054Z,98175.03
2023-05-13T12:17:53.396Z,98184.22
2023-05-13T12:20:25.230Z,98188.03
2023-05-13T12:22:57.316Z,98187.50
2023-05-13T12:25:43.442Z,98198.94
2023-05-13T12:28:17.080Z,98195.59
2023-05-13T12:30:53.659Z,98200.63
2023-05-13T12:33:28.003Z,98193.66
2023-05-13T12:36:17.840Z,98198.41
2023-05-13T12:39:00.267Z,98202.13
2023-05-13T12:41:32.431Z,98192.88
2023-05-13T12:44:06.913Z,98190.03
2023-05-13T12:46:37.991Z,98192.69
2023-05-13T12:49:13.026Z,98184.44
2023-05-13T12:51:43.200Z,98184.69
2023-05-13T12:54:13.644Z,98197.63
2023-05-13T12:56:43.911Z,98192.97
2023-05-13T12:59:14.722Z,98188.97
2023-05-13T13:01:45.141Z,98195.13
2023-05-13T13:04:19.264Z,98184.03
2023-05-13T13:06:49.642Z,98187.72
2023-05-13T13:09:19.853Z,98188.41
2023-05-13T13:11:49.996Z,98181.72
2023-05-13T13:14:20.151Z,98187.72
2023-05-13T13:16:50.456Z,98202.09
2023-05-13T13:19:23.363Z,98200.13
2023-05-13T13:21:53.592Z,98208.47
2023-05-13T13:24:23.709Z,98199.22
2023-05-13T13:26:55.001Z,98190.03
2023-05-13T13:29:26.371Z,98192.91
2023-05-13T13:31:56.815Z,98188.06
2023-05-13T13:34:29.830Z,98187.19
2023-05-13T13:37:00.027Z,98183.00
2023-05-13T13:39:30.261Z,98190.03
2023-05-13T13:42:00.419Z,98189.28
2023-05-13T13:44:30.535Z,98193.16
2023-05-13T13:47:00.698Z,98183.19
2023-05-13T13:49:33.627Z,98175.44
2023-05-13T13:52:03.928Z,98176.97
2023-05-13T13:54:34.060Z,98178.72
2023-05-13T13:57:04.258Z,98170.66
2023-05-13T13:59:34.648Z,98170.53
2023-05-13T14:02:04.829Z,98161.31
2023-05-13T14:04:37.584Z,98168.38
2023-05-13T14:07:09.261Z,98176.44
2023-05-13T14:09:39.787Z,98169.81
2023-05-13T14:12:10.406Z,98161.53
2023-05-13T14:14:40.810Z,98158.28
2023-05-13T14:17:12.347Z,98173.53
2023-05-13T14:19:45.926Z,98163.03
2023-05-13T14:22:16.213Z,98164.78
2023-05-13T14:24:49.550Z,98169.28
2023-05-13T14:27:19.777Z,98177.47
2023-05-13T14:29:50.466Z,98170.69
2023-05-13T14:32:20.758Z,98163.81
2023-05-13T14:34:53.655Z,98170.56
2023-05-13T14:37:23.860Z,98167.97
2023-05-13T14:39:54.097Z,98179.28
2023-05-13T14:42:24.313Z,98179.16
2023-05-13T14:44:54.420Z,98176.78
2023-05-13T14:47:25.148Z,98169.88
2023-05-13T14:49:58.044Z,98165.47
2023-05-13T14:52:28.703Z,98165.78
2023-05-13T14:54:58.921Z,98163.13
2023-05-13T14:57:29.182Z,98161.56
2023-05-13T15:00:00.141Z,98164.91
2023-05-13T15:02:30.678Z,98164.84
2023-05-13T15:05:03.602Z,98168.72
2023-05-13T15:07:33.809Z,98170.84
2023-05-13T15:10:04.323Z,98172.00
2023-05-13T15:12:34.561Z,98162.88
2023-05-13T15:15:04.765Z,98163.81
2023-05-13T15:17:35.057Z,98163.63
2023-05-13T15:20:08.895Z,98155.94
2023-05-13T15:22:39.164Z,98159.88
2023-05-13T15:25:10.310Z,98154.78
2023-05-13T15:27:40.950Z,98152.72
2023-05-13T15:30:12.759Z,98161.31
2023-05-13T15:32:42.904Z,98156.13
2023-05-13T15:35:18.359Z,98158.16
2023-05-13T15:37:48.620Z,98150.66
2023-05-13T15:40:18.806Z,98149.25
2023-05-13T15:42:49.010Z,98148.91
2023-05-13T15:45:21.145Z,98155.53
2023-05-13T15:47:51.816Z,98152.00
2023-05-13T15:50:26.210Z,98147.34
2023-05-13T15:52:57.438Z,98148.19
2023-05-13T15:55:27.747Z,98144.09
2023-05-13T15:57:58.019Z,98140.75
2023-05-13T16:00:28.266Z,98145.41
2023-05-13T16:02:58.533Z,98149.44
2023-05-13T16:05:31.575Z,98137.16
2023-05-13T16:08:01.707Z,98128.56
2023-05-13T16:10:32.274Z,98141.66
2023-05-13T16:13:02.716Z,98137.66
2023-05-13T16:15:33.066Z,98134.38
2023-05-13T16:18:03.800Z,98136.19
2023-05-13T16:20:36.676Z,98141.25
2023-05-13T16:23:06.867Z,98133.53
2023-05-13T16:25:37.710Z,98129.84
2023-05-13T16:28:08.084Z,98122.00
2023-05-13T16:30:38.877Z,98128.47
2023-05-13T16:33:09.804Z,98123.41
2023-05-13T16:35:42.819Z,98125.31
2023-05-13T16:38:12.979Z,98131.75
2023-05-13T16:40:43.258Z,98128.94
2023-05-13T16:43:13.453Z,98127.47
2023-05-13T16:45:44.091Z,98128.53
2023-05-13T16:48:14.634Z,98126.75
2023-05-13T16:50:47.923Z,98131.31
2023-05-13T16:53:18.304Z,98121.91
2023-05-13T16:55:49.743Z,98127.81
2023-05-13T16:58:20.388Z,98131.63
2023-05-13T17:00:50.722Z,98125.25
2023-05-13T17:03:21.043Z,98132.13
2023-05-13T17:05:53.818Z,98134.19
2023-05-13T17:08:24.630Z,98132.41
2023-05-13T17:10:54.804Z,98126.06
2023-05-13T17:13:24.991Z,98121.50
2023-05-13T17:15:55.149Z,98123.53
2023-05-13T17:18:26.623Z,98125.56
2023-05-13T17:21:00.256Z,98119.19
2023-05-13T17:23:30.423Z,98119.69
2023-05-13T17:26:00.670Z,98130.66
2023-05-13T17:28:30.929Z,98124.53
2023-05-13T17:31:01.251Z,98120.72
2023-05-13T17:33:31.630Z,98118.91
2023-05-13T17:36:04.401Z,98131.41
2023-05-13T17:38:34.634Z,98121.19
2023-05-13T17:41:05.024Z,98124.50
2023-05-13T17:43:35.287Z,98124.50
2023-05-13T17:46:05.895Z,98123.50
2023-05-13T17:48:36.331Z,98125.06
2023-05-13T17:51:09.337Z,98124.28
2023-05-13T17:53:39.516Z,98126.06
2023-05-13T17:56:10.764Z,98117.66
2023-05-13T17:58:41.023Z,98123.03
2023-05-13T18:01:11.287Z,98124.53
2023-05-13T18:03:41.440Z,98132.19
2023-05-13T18:06:14.295Z,98129.91
2023-05-13T18:08:44.691Z,98124.81
2023-05-13T18:11:14.859Z,98137.53
2023-05-13T18:13:45.034Z,98132.19
2023-05-13T18:16:17.153Z,98136.25
2023-05-13T18:18:49.000Z,98132.97
2023-05-13T18:21:23.864Z,98133.97
2023-05-13T18:23:54.279Z,98129.91
2023-05-13T18:26:24.571Z,98136.53
2023-05-13T18:28:54.783Z,98136.25
2023-05-13T18:31:25.005Z,98136.53
2023-05-13T18:33:55.324Z,98137.78
2023-05-13T18:36:28.214Z,98141.81
2023-05-13T18:38:58.503Z,98141.06
2023-05-13T18:41:28.847Z,98139.28
2023-05-13T18:43:59.086Z,98145.13
2023-05-13T18:46:29.522Z,98149.19
2023-05-13T18:49:00.638Z,98153.50
2023-05-13T18:51:34.049Z,98144.06
2023-05-13T18:54:04.457Z,98148.38
2023-05-13T18:56:35.040Z,98151.72
2023-05-13T18:59:05.237Z,98150.69
2023-05-13T19:01:35.483Z,98154.00
2023-05-13T19:04:05.839Z,98158.09
2023-05-13T19:06:38.840Z,98162.38
2023-05-13T19:09:09.160Z,98163.91
2023-05-13T19:11:39.354Z,98154.25
2023-05-13T19:14:09.772Z,98170.53
2023-05-13T19:16:42.367Z,98166.94
2023-05-13T19:19:12.944Z,98168.44
2023-05-13T19:21:45.751Z,98167.19
2023-05-13T19:24:15.902Z,98166.41
2023-05-13T19:26:46.240Z,98166.41
2023-05-13T19:29:16.445Z,98166.41
2023-05-13T19:31:46.603Z,98161.34
2023-05-13T19:34:17.561Z,98167.94
2023-05-13T19:36:51.003Z,98165.13
2023-05-13T19:39:21.335Z,98174.31
2023-05-13T19:41:51.501Z,98170.50
2023-05-13T19:44:21.686Z,98171.00
2023-05-13T19:46:51.860Z,98172.25
2023-05-13T19:49:22.235Z,98170.19
2023-05-13T19:51:55.898Z,98165.63
2023-05-13T19:54:26.164Z,98165.38
2023-05-13T19:56:56.493Z,98170.97
2023-05-13T19:59:26.888Z,98169.69
2023-05-13T20:01:57.322Z,98169.94
2023-05-13T20:04:27.504Z,98164.34
2023-05-13T20:07:00.708Z,98173.78
2023-05-13T20:09:30.861Z,98168.94
2023-05-13T20:12:01.589Z,98169.19
2023-05-13T20:14:45.549Z,98169.69
2023-05-13T20:17:18.404Z,98171.47
2023-05-13T20:19:49.369Z,98169.63
2023-05-13T20:22:22.629Z,98174.50
2023-05-13T20:24:54.560Z,98168.38
2023-05-13T20:27:24.753Z,98162.00
2023-05-13T20:29:55.947Z,98165.56
2023-05-13T20:32:27.670Z,98167.09
2023-05-13T20:34:57.849Z,98169.59
2023-05-13T20:37:31.377Z,98166.00
2023-05-13T20:40:01.596Z,98176.66
2023-05-13T20:42:32.150Z,98181.19
2023-05-13T20:45:02.412Z,98173.53
2023-05-13T20:47:32.652Z,98171.47
2023-05-13T20:50:02.933Z,98175.00
2023-05-13T20:52:35.786Z,98170.88
2023-05-13T20:55:05.914Z,98171.34
2023-05-13T20:57:36.065Z,98171.56
2023-05-13T21:00:07.496Z,98179.44
2023-05-13T21:02:37.677Z,98171.50
2023-05-13T21:05:08.991Z,98161.31
2023-05-13T21:07:41.759Z,98167.16
2023-05-13T21:10:12.634Z,98167.59
2023-05-13T21:12:47.960Z,98160.44
2023-05-13T21:15:18.480Z,98163.44
2023-05-13T21:17:49.239Z,98163.66
2023-05-13T21:20:19.662Z,98169.50
2023-05-13T21:22:52.561Z,98163.91
2023-05-13T21:25:22.932Z,98173.00
2023-05-13T21:27:53.244Z,98170.22
2023-05-13T21:30:24.104Z,98175.47
2023-05-13T21:32:54.859Z,98176.44
2023-05-13T21:35:25.267Z,98175.66
2023-05-13T21:38:11.011Z,98178.69
2023-05-13T21:40:42.392Z,98174.59
2023-05-13T21:43:13.447Z,98174.03
2023-05-13T21:45:44.112Z,98173.78
2023-05-13T21:48:14.673Z,98172.53
2023-05-13T21:50:45.026Z,98171.00
2023-05-13T21:53:17.916Z,98168.16
2023-05-13T21:55:48.082Z,98170.47
2023-05-13T21:58:19.416Z,98164.66
2023-05-13T22:00:50.425Z,98164.41
2023-05-13T22:03:20.938Z,98168.75
2023-05-13T22:05:53.786Z,98163.94
2023-05-13T22:08:26.556Z,98161.13
2023-05-13T22:10:56.799Z,98160.31
2023-05-13T22:13:27.313Z,98156.81
2023-05-13T22:15:57.673Z,98159.13
2023-05-13T22:18:28.014Z,98155.28
2023-05-13T22:20:59.719Z,98159.34
2023-05-13T22:23:32.510Z,98149.94
2023-05-13T22:26:02.875Z,98154.22
2023-05-13T22:28:33.021Z,98158.25
2023-05-13T22:31:03.308Z,98151.34
2023-05-13T22:33:33.619Z,98149.25
2023-05-13T22:36:03.812Z,98148.97
2023-05-13T22:38:37.293Z,98150.72
2023-05-13T22:41:07.743Z,98162.38
2023-05-13T22:43:37.950Z,98143.56
2023-05-13T22:46:08.346Z,98144.56
2023-05-13T22:48:38.517Z,98145.25
2023-05-13T22:51:08.715Z,98147.50
2023-05-13T22:53:41.575Z,98136.56
2023-05-13T22:56:11.895Z,98145.41
2023-05-13T22:58:42.008Z,98143.91
2023-05-13T23:01:12.175Z,98141.03
2023-05-13T23:03:42.428Z,98142.25
2023-05-13T23:06:13.674Z,98139.88
2023-05-13T23:08:46.501Z,98137.22
2023-05-13T23:11:16.680Z,98137.72
2023-05-13T23:13:46.858Z,98143.25
2023-05-13T23:16:17.069Z,98137.09
2023-05-13T23:18:47.316Z,98136.84
2023-05-13T23:21:17.648Z,98134.81
2023-05-13T23:23:50.600Z,98129.72
2023-05-13T23:26:20.702Z,98120.06
2023-05-13T23:28:50.937Z,98120.53
2023-05-13T23:31:21.166Z,98119.22
2023-05-13T23:33:51.377Z,98115.84
2023-05-13T23:36:21.604Z,98115.09
2023-05-13T23:38:55.029Z,98111.81
2023-05-13T23:41:25.147Z,98109.81
2023-05-13T23:43:57.292Z,98112.59
2023-05-13T23:46:27.626Z,98110.09
2023-05-13T23:49:00.107Z,98099.44
2023-05-13T23:51:30.312Z,98100.97
2023-05-13T23:54:03.135Z,98092.81
2023-05-13T23:56:33.312Z,98096.94
2023-05-13T23:59:03.556Z,98089.06
